createdAt,value
2022-12-15T00:00:49.519Z,4.05
2022-12-15T00:03:37.280Z,4.60
2022-12-15T00:06:24.632Z,9.02
2022-12-15T00:09:14.397Z,5.30
2022-12-15T00:12:02.846Z,4.72
2022-12-15T00:14:50.255Z,8.23
2022-12-15T00:17:37.363Z,4.15
2022-12-15T00:20:24.724Z,5.20
2022-12-15T00:23:11.814Z,11.43
2022-12-15T00:25:58.902Z,5.57
2022-12-15T00:28:46.138Z,5.38
2022-12-15T00:34:20.154Z,6.90
2022-12-15T00:37:07.274Z,7.63
2022-12-15T00:39:36.154Z,6.15
2022-12-15T00:42:05.059Z,6.10
2022-12-15T00:44:33.917Z,11.60
2022-12-15T00:47:02.805Z,9.98
2022-12-15T00:49:50.918Z,8.93
2022-12-15T00:52:38.426Z,9.70
2022-12-15T00:55:25.697Z,7.55
2022-12-15T00:58:15.908Z,9.02
2022-12-15T01:01:03.113Z,8.38
2022-12-15T01:03:50.282Z,8.23
2022-12-15T01:06:39.583Z,9.30
2022-12-15T01:09:30.310Z,6.10
2022-12-15T01:12:17.339Z,7.10
2022-12-15T01:17:51.478Z,8.85
2022-12-15T01:20:20.500Z,7.47
2022-12-15T01:22:54.784Z,11.80
2022-12-15T01:25:25.831Z,6.53
2022-12-15T01:27:54.943Z,6.97
2022-12-15T01:30:26.899Z,10.60
2022-12-15T01:32:55.767Z,7.40
2022-12-15T01:35:24.487Z,8.18
2022-12-15T01:37:53.328Z,8.43
2022-12-15T01:40:41.132Z,10.38
2022-12-15T01:43:15.639Z,18.35
2022-12-15T01:45:59.235Z,16.45
2022-12-15T01:48:35.121Z,13.40
2022-12-15T01:51:17.196Z,13.02
2022-12-15T01:53:51.769Z,11.70
2022-12-15T01:56:22.614Z,11.38
2022-12-15T01:58:54.604Z,11.70
2022-12-15T02:01:32.937Z,8.13
2022-12-15T02:04:05.643Z,7.32
2022-12-15T02:06:34.720Z,7.18
2022-12-15T02:09:04.296Z,7.82
2022-12-15T02:11:45.098Z,6.57
2022-12-15T02:14:36.269Z,8.75
2022-12-15T02:17:23.711Z,4.88
2022-12-15T02:20:07.426Z,7.65
2022-12-15T02:22:50.694Z,8.75
2022-12-15T02:25:25.274Z,6.35
2022-12-15T02:28:03.038Z,4.78
2022-12-15T02:30:34.454Z,5.45
2022-12-15T02:33:22.478Z,8.90
2022-12-15T02:36:24.548Z,12.02
2022-12-15T02:38:53.442Z,12.75
2022-12-15T02:41:53.621Z,10.18
2022-12-15T02:44:25.588Z,9.00
2022-12-15T02:47:18.723Z,6.72
2022-12-15T02:50:05.466Z,6.72
2022-12-15T02:52:57.128Z,6.72
2022-12-15T02:55:38.821Z,7.32
2022-12-15T02:58:25.579Z,8.07
2022-12-15T03:01:02.656Z,8.75
2022-12-15T03:03:34.420Z,8.70
2022-12-15T03:06:06.039Z,9.38
2022-12-15T03:08:34.807Z,10.20
2022-12-15T03:11:03.793Z,6.93
2022-12-15T03:13:33.036Z,9.75
2022-12-15T03:16:02.577Z,8.50
2022-12-15T03:18:31.629Z,7.22
2022-12-15T03:21:00.300Z,7.82
2022-12-15T03:23:29.802Z,7.78
2022-12-15T03:25:58.919Z,6.80
2022-12-15T03:28:27.604Z,7.88
2022-12-15T03:30:57.271Z,7.43
2022-12-15T03:33:26.089Z,6.65
2022-12-15T03:35:54.768Z,9.20
2022-12-15T03:38:23.504Z,9.48
2022-12-15T03:40:52.138Z,7.35
2022-12-15T03:43:21.018Z,8.88
2022-12-15T03:45:49.822Z,9.85
2022-12-15T03:48:18.682Z,10.35
2022-12-15T03:50:49.032Z,13.95
2022-12-15T03:53:18.017Z,16.40
2022-12-15T03:55:46.784Z,16.27
2022-12-15T03:58:15.636Z,13.38
2022-12-15T04:00:44.337Z,11.65
2022-12-15T04:03:13.741Z,10.38
2022-12-15T04:05:42.784Z,10.82
2022-12-15T04:08:12.113Z,11.05
2022-12-15T04:10:41.042Z,10.93
2022-12-15T04:13:12.668Z,7.85
2022-12-15T04:15:42.384Z,9.23
2022-12-15T04:18:12.298Z,8.80
2022-12-15T04:20:41.807Z,10.05
2022-12-15T04:23:10.823Z,11.75
2022-12-15T04:25:57.983Z,8.57
2022-12-15T04:31:37.400Z,11.15
2022-12-15T04:34:29.372Z,14.85
2022-12-15T04:37:48.497Z,13.15
2022-12-15T04:43:22.179Z,11.85
2022-12-15T04:46:09.515Z,13.60
2022-12-15T04:51:43.118Z,26.52
2022-12-15T04:54:30.250Z,20.55
2022-12-15T04:57:17.239Z,16.67
2022-12-15T05:00:04.227Z,12.65
2022-12-15T05:02:51.557Z,11.63
2022-12-15T05:08:25.201Z,15.85
2022-12-15T05:11:14.262Z,13.55
2022-12-15T05:14:01.538Z,15.38
2022-12-15T05:19:35.527Z,24.42
2022-12-15T05:22:23.307Z,26.35
2022-12-15T05:28:00.010Z,19.67
2022-12-15T05:30:47.708Z,22.85
2022-12-15T05:33:16.531Z,23.35
2022-12-15T05:35:45.265Z,14.07
2022-12-15T05:38:14.177Z,13.52
2022-12-15T05:40:43.931Z,19.00
2022-12-15T05:43:12.614Z,16.55
2022-12-15T05:45:41.323Z,52.55
2022-12-15T05:48:10.212Z,57.40
2022-12-15T05:50:38.924Z,89.00
2022-12-15T05:53:08.542Z,44.03
2022-12-15T05:55:41.611Z,30.88
2022-12-15T05:58:11.749Z,18.00
2022-12-15T06:00:40.953Z,17.83
2022-12-15T06:03:12.499Z,16.02
2022-12-15T06:05:41.392Z,19.63
2022-12-15T06:08:10.038Z,36.70
2022-12-15T06:10:38.905Z,31.70
2022-12-15T06:13:07.644Z,29.35
2022-12-15T06:15:36.665Z,30.00
2022-12-15T06:18:05.569Z,59.08
2022-12-15T06:20:34.335Z,38.72
2022-12-15T06:23:03.428Z,30.15
2022-12-15T06:25:32.226Z,37.33
2022-12-15T06:28:02.052Z,110.30
2022-12-15T06:30:30.983Z,84.50
2022-12-15T06:32:59.630Z,92.18
2022-12-15T06:35:28.534Z,79.95
2022-12-15T06:37:57.171Z,48.97
2022-12-15T06:40:26.125Z,62.30
2022-12-15T06:42:54.761Z,62.00
2022-12-15T06:45:23.540Z,42.00
2022-12-15T06:47:54.244Z,39.47
2022-12-15T06:50:26.879Z,30.42
2022-12-15T06:52:55.586Z,40.95
2022-12-15T06:55:24.293Z,28.73
2022-12-15T06:57:52.969Z,46.63
2022-12-15T07:00:21.669Z,21.55
2022-12-15T07:02:50.599Z,18.05
2022-12-15T07:05:19.453Z,19.42
2022-12-15T07:07:48.575Z,14.23
2022-12-15T07:10:17.381Z,27.02
2022-12-15T07:12:46.077Z,55.10
2022-12-15T07:15:15.551Z,60.00
2022-12-15T07:17:44.260Z,71.55
2022-12-15T07:20:13.384Z,65.05
2022-12-15T07:22:42.030Z,58.30
2022-12-15T07:25:11.196Z,33.75
2022-12-15T07:27:39.842Z,72.35
2022-12-15T07:30:18.979Z,86.95
2022-12-15T07:32:50.378Z,93.40
2022-12-15T07:35:22.693Z,109.25
2022-12-15T07:37:51.681Z,81.70
2022-12-15T07:40:20.663Z,90.93
2022-12-15T07:42:49.743Z,99.68
2022-12-15T07:45:18.724Z,99.65
2022-12-15T07:47:51.166Z,56.05
2022-12-15T07:50:20.187Z,29.02
2022-12-15T07:52:49.147Z,26.65
2022-12-15T07:55:27.723Z,23.25
2022-12-15T07:58:07.124Z,15.88
2022-12-15T08:00:36.055Z,16.40
2022-12-15T08:03:05.427Z,10.52
2022-12-15T08:05:34.367Z,11.70
2022-12-15T08:08:08.508Z,6.75
2022-12-15T08:10:41.805Z,8.02
2022-12-15T08:13:10.910Z,8.48
2022-12-15T08:15:43.903Z,14.52
2022-12-15T08:18:12.751Z,10.32
2022-12-15T08:20:41.669Z,9.13
2022-12-15T08:23:10.518Z,11.43
2022-12-15T08:25:39.848Z,14.18
2022-12-15T08:28:08.909Z,10.77
2022-12-15T08:30:37.978Z,8.60
2022-12-15T08:33:07.060Z,11.75
2022-12-15T08:35:55.752Z,13.50
2022-12-15T08:38:24.827Z,16.92
2022-12-15T08:40:53.700Z,13.07
2022-12-15T08:43:22.749Z,10.40
2022-12-15T08:45:51.682Z,9.43
2022-12-15T08:48:20.651Z,10.23
2022-12-15T08:50:49.509Z,10.30
2022-12-15T08:53:41.351Z,9.27
2022-12-15T08:56:13.961Z,8.73
2022-12-15T08:58:44.059Z,10.02
2022-12-15T09:01:23.382Z,8.40
2022-12-15T09:03:54.554Z,7.55
2022-12-15T09:06:36.389Z,8.38
2022-12-15T09:09:08.440Z,17.90
2022-12-15T09:11:38.293Z,15.40
2022-12-15T09:14:08.517Z,11.52
2022-12-15T09:16:37.736Z,8.82
2022-12-15T09:19:09.065Z,7.03
2022-12-15T09:21:40.176Z,10.25
2022-12-15T09:24:09.256Z,9.90
2022-12-15T09:26:38.442Z,7.72
2022-12-15T09:29:07.396Z,7.18
2022-12-15T09:31:38.846Z,11.50
2022-12-15T09:34:08.138Z,9.35
2022-12-15T09:36:37.376Z,9.02
2022-12-15T09:39:06.409Z,5.18
2022-12-15T09:41:37.211Z,5.78
2022-12-15T09:44:16.017Z,8.50
2022-12-15T09:47:02.312Z,7.70
2022-12-15T09:49:31.147Z,7.45
2022-12-15T09:52:11.101Z,6.53
2022-12-15T09:54:44.828Z,7.35
2022-12-15T09:57:24.790Z,5.65
2022-12-15T09:59:57.009Z,5.13
2022-12-15T10:02:58.294Z,4.78
2022-12-15T10:06:14.840Z,8.90
2022-12-15T10:08:40.009Z,8.15
2022-12-15T10:11:33.438Z,5.80
2022-12-15T10:14:20.472Z,5.60
2022-12-15T10:16:53.528Z,4.55
2022-12-15T10:19:50.338Z,7.13
2022-12-15T10:22:28.352Z,4.00
2022-12-15T10:28:08.133Z,6.07
2022-12-15T10:30:59.304Z,13.73
2022-12-15T10:33:35.530Z,16.95
2022-12-15T10:36:16.964Z,6.97
2022-12-15T10:38:50.541Z,7.50
2022-12-15T10:41:28.612Z,10.85
2022-12-15T10:43:58.227Z,30.52
2022-12-15T10:46:29.492Z,29.35
2022-12-15T10:49:01.327Z,29.90
2022-12-15T10:51:34.139Z,20.33
2022-12-15T10:54:04.222Z,22.92
2022-12-15T10:56:37.951Z,27.98
2022-12-15T10:59:25.648Z,24.83
2022-12-15T11:01:55.068Z,21.15
2022-12-15T11:04:30.908Z,6.13
2022-12-15T11:07:02.672Z,6.75
2022-12-15T11:09:37.795Z,6.63
2022-12-15T11:12:40.806Z,25.60
2022-12-15T11:15:32.990Z,53.83
2022-12-15T11:18:48.816Z,86.35
2022-12-15T11:21:34.321Z,34.17
2022-12-15T11:24:22.562Z,5.18
2022-12-15T11:27:11.291Z,5.18
2022-12-15T11:30:08.438Z,5.60
2022-12-15T11:32:39.647Z,9.63
2022-12-15T11:35:15.005Z,4.32
2022-12-15T11:37:45.953Z,3.30
2022-12-15T11:40:40.771Z,5.05
2022-12-15T11:43:35.018Z,4.07
2022-12-15T11:46:18.051Z,7.72
2022-12-15T11:49:12.975Z,12.82
2022-12-15T11:52:14.128Z,32.10
2022-12-15T11:54:56.340Z,47.13
2022-12-15T11:58:01.532Z,14.35
2022-12-15T12:00:37.575Z,3.55
2022-12-15T12:03:38.611Z,12.00
2022-12-15T12:06:12.998Z,40.22
2022-12-15T12:09:03.414Z,31.73
2022-12-15T12:12:06.409Z,18.10
2022-12-15T12:15:16.423Z,4.78
2022-12-15T12:17:51.960Z,3.25
2022-12-15T12:20:24.016Z,10.95
2022-12-15T12:23:03.931Z,9.75
2022-12-15T12:25:42.759Z,6.13
2022-12-15T12:28:54.210Z,2.50
2022-12-15T12:31:44.875Z,2.25
2022-12-15T12:34:27.075Z,2.65
2022-12-15T12:37:05.455Z,2.50
2022-12-15T12:39:34.882Z,7.75
2022-12-15T12:42:16.746Z,8.70
2022-12-15T12:44:46.031Z,7.43
2022-12-15T12:47:29.375Z,3.08
2022-12-15T12:50:04.458Z,4.65
2022-12-15T12:52:36.191Z,6.68
2022-12-15T12:55:36.424Z,4.93
2022-12-15T12:58:25.663Z,4.53
2022-12-15T13:01:08.766Z,4.95
2022-12-15T13:03:42.688Z,3.50
2022-12-15T13:06:23.455Z,3.00
2022-12-15T13:08:56.528Z,3.67
2022-12-15T13:11:46.945Z,4.75
2022-12-15T13:14:28.218Z,2.60
2022-12-15T13:20:02.507Z,2.67
2022-12-15T13:22:43.433Z,3.22
2022-12-15T13:26:02.812Z,3.03
2022-12-15T13:28:39.702Z,3.03
2022-12-15T13:31:18.177Z,2.63
2022-12-15T13:33:51.634Z,3.00
2022-12-15T13:36:39.036Z,3.03
2022-12-15T13:39:14.135Z,5.20
2022-12-15T13:45:07.343Z,3.30
2022-12-15T13:47:36.652Z,3.00
2022-12-15T13:50:30.996Z,3.30
2022-12-15T13:53:20.286Z,3.00
2022-12-15T13:56:08.382Z,3.30
2022-12-15T13:58:49.173Z,3.20
2022-12-15T14:01:27.258Z,2.90
2022-12-15T14:04:17.060Z,2.90
2022-12-15T14:06:54.839Z,2.40
2022-12-15T14:09:43.216Z,5.43
2022-12-15T14:12:14.874Z,2.78
2022-12-15T14:14:50.859Z,2.80
2022-12-15T14:17:21.069Z,3.22
2022-12-15T14:19:51.762Z,3.00
2022-12-15T14:22:29.690Z,2.90
2022-12-15T14:25:21.572Z,2.42
2022-12-15T14:30:41.015Z,2.88
2022-12-15T14:33:16.753Z,3.55
2022-12-15T14:35:51.400Z,3.15
2022-12-15T14:38:42.202Z,3.10
2022-12-15T14:41:27.812Z,5.97
2022-12-15T14:44:38.011Z,4.68
2022-12-15T14:47:18.758Z,3.85
2022-12-15T14:49:49.258Z,3.15
2022-12-15T14:52:39.844Z,3.17
2022-12-15T14:55:39.109Z,3.45
2022-12-15T14:58:37.184Z,3.17
2022-12-15T15:01:24.631Z,3.47
2022-12-15T15:03:06.549Z,6.50
2022-12-15T15:04:04.994Z,3.13
2022-12-15T15:06:41.912Z,3.60
2022-12-15T15:09:22.881Z,2.75
2022-12-15T15:11:58.283Z,3.60
2022-12-15T15:14:33.599Z,4.07
2022-12-15T15:17:22.903Z,3.30
2022-12-15T15:20:17.050Z,2.97
2022-12-15T15:22:47.764Z,3.55
2022-12-15T15:25:27.995Z,2.75
2022-12-15T15:28:12.944Z,4.07
2022-12-15T15:30:48.665Z,3.55
2022-12-15T15:33:18.863Z,3.37
2022-12-15T15:35:53.711Z,2.92
2022-12-15T15:38:33.151Z,4.28
2022-12-15T15:41:16.031Z,3.42
2022-12-15T15:43:45.622Z,6.07
2022-12-15T15:46:19.908Z,4.57
2022-12-15T15:48:51.680Z,3.88
2022-12-15T15:51:21.549Z,5.97
2022-12-15T15:53:50.501Z,7.28
2022-12-15T15:56:19.888Z,5.45
2022-12-15T15:58:48.643Z,4.22
2022-12-15T16:01:21.635Z,4.45
2022-12-15T16:03:50.699Z,3.60
2022-12-15T16:06:24.899Z,3.30
2022-12-15T16:08:55.147Z,3.30
2022-12-15T16:11:25.546Z,4.10
2022-12-15T16:13:54.340Z,6.25
2022-12-15T16:16:25.606Z,7.60
2022-12-15T16:18:54.498Z,6.75
2022-12-15T16:21:26.041Z,7.38
2022-12-15T16:23:56.403Z,5.50
2022-12-15T16:26:33.779Z,5.53
2022-12-15T16:29:02.596Z,4.97
2022-12-15T16:31:41.429Z,5.00
2022-12-15T16:34:10.903Z,10.00
2022-12-15T16:36:43.172Z,4.65
2022-12-15T16:39:38.193Z,4.32
2022-12-15T16:42:13.048Z,3.28
2022-12-15T16:44:41.897Z,3.50
2022-12-15T16:47:10.800Z,3.67
2022-12-15T16:49:40.471Z,4.50
2022-12-15T16:52:20.838Z,4.65
2022-12-15T16:54:50.982Z,7.72
2022-12-15T16:57:19.820Z,7.63
2022-12-15T16:59:49.984Z,4.13
2022-12-15T17:02:27.881Z,4.55
2022-12-15T17:04:57.087Z,5.03
2022-12-15T17:07:28.547Z,5.07
2022-12-15T17:09:57.990Z,3.88
2022-12-15T17:12:26.935Z,4.22
2022-12-15T17:14:55.618Z,5.15
2022-12-15T17:17:24.424Z,4.78
2022-12-15T17:20:27.395Z,4.75
2022-12-15T17:22:41.993Z,3.10
2022-12-15T17:25:37.464Z,3.65
2022-12-15T17:28:20.804Z,3.70
2022-12-15T17:30:51.354Z,3.58
2022-12-15T17:33:28.953Z,6.05
2022-12-15T17:36:02.082Z,3.72
2022-12-15T17:38:31.735Z,4.78
2022-12-15T17:41:02.963Z,4.72
2022-12-15T17:43:35.671Z,5.40
2022-12-15T17:46:05.193Z,4.40
2022-12-15T17:48:34.128Z,4.70
2022-12-15T17:51:02.970Z,3.60
2022-12-15T17:53:32.465Z,4.63
2022-12-15T17:56:01.619Z,4.28
2022-12-15T17:58:30.275Z,5.30
2022-12-15T18:00:59.017Z,4.45
2022-12-15T18:03:28.156Z,5.25
2022-12-15T18:05:56.982Z,3.90
2022-12-15T18:08:28.587Z,4.07
2022-12-15T18:10:58.764Z,4.47
2022-12-15T18:13:35.008Z,5.53
2022-12-15T18:16:04.540Z,5.45
2022-12-15T18:18:33.465Z,5.25
2022-12-15T18:21:13.582Z,5.57
2022-12-15T18:23:42.733Z,4.05
2022-12-15T18:26:15.513Z,4.43
2022-12-15T18:28:44.767Z,6.18
2022-12-15T18:31:28.090Z,5.53
2022-12-15T18:34:04.499Z,4.60
2022-12-15T18:36:33.733Z,4.82
2022-12-15T18:39:27.485Z,3.83
2022-12-15T18:41:56.229Z,3.28
2022-12-15T18:44:32.145Z,5.85
2022-12-15T18:47:03.509Z,3.70
2022-12-15T18:49:32.261Z,7.45
2022-12-15T18:52:02.730Z,3.72
2022-12-15T18:54:33.561Z,4.30
2022-12-15T18:57:04.679Z,3.40
2022-12-15T18:59:33.403Z,3.70
2022-12-15T19:02:02.724Z,6.03
2022-12-15T19:04:33.813Z,6.15
2022-12-15T19:07:07.667Z,4.45
2022-12-15T19:09:36.580Z,3.35
2022-12-15T19:12:20.646Z,6.20
2022-12-15T19:14:52.117Z,5.03
2022-12-15T19:17:41.280Z,4.07
2022-12-15T19:20:43.658Z,3.15
2022-12-15T19:23:15.964Z,3.30
2022-12-15T19:25:47.161Z,4.10
2022-12-15T19:28:19.043Z,3.30
2022-12-15T19:30:50.785Z,3.75
2022-12-15T19:33:22.591Z,3.10
2022-12-15T19:35:52.817Z,5.13
2022-12-15T19:38:25.540Z,4.10
2022-12-15T19:40:56.076Z,3.80
2022-12-15T19:43:25.571Z,3.50
2022-12-15T19:45:54.675Z,3.33
2022-12-15T19:48:24.297Z,4.88
2022-12-15T19:50:55.018Z,5.03
2022-12-15T19:53:27.234Z,3.63
2022-12-15T19:55:59.155Z,4.03
2022-12-15T19:58:33.084Z,5.80
2022-12-15T20:01:07.324Z,3.97
2022-12-15T20:03:36.888Z,5.40
2022-12-15T20:06:26.633Z,6.78
2022-12-15T20:08:57.629Z,4.53
2022-12-15T20:11:28.776Z,3.97
2022-12-15T20:13:57.765Z,5.57
2022-12-15T20:16:26.467Z,5.38
2022-12-15T20:18:56.844Z,3.70
2022-12-15T20:21:33.958Z,3.35
2022-12-15T20:24:08.452Z,6.97
2022-12-15T20:26:38.846Z,4.03
2022-12-15T20:29:24.207Z,3.85
2022-12-15T20:31:53.965Z,4.95
2022-12-15T20:34:22.978Z,4.57
2022-12-15T20:36:52.403Z,4.00
2022-12-15T20:39:32.294Z,5.38
2022-12-15T20:42:01.358Z,5.10
2022-12-15T20:44:31.774Z,9.10
2022-12-15T20:47:00.524Z,3.65
2022-12-15T20:49:36.418Z,4.18
2022-12-15T20:52:05.182Z,3.00
2022-12-15T20:54:36.654Z,2.90
2022-12-15T20:57:05.383Z,4.03
2022-12-15T20:59:33.987Z,4.13
2022-12-15T21:02:20.633Z,6.35
2022-12-15T21:04:52.683Z,3.38
2022-12-15T21:07:23.780Z,2.83
2022-12-15T21:09:55.084Z,4.57
2022-12-15T21:12:31.131Z,3.78
2022-12-15T21:14:59.828Z,5.43
2022-12-15T21:17:28.618Z,4.45
2022-12-15T21:19:57.359Z,4.95
2022-12-15T21:22:31.201Z,5.72
2022-12-15T21:25:01.227Z,3.50
2022-12-15T21:27:29.912Z,4.18
2022-12-15T21:29:58.507Z,3.13
2022-12-15T21:32:27.283Z,3.90
2022-12-15T21:34:55.935Z,7.05
2022-12-15T21:37:31.839Z,3.92
2022-12-15T21:40:03.478Z,7.10
2022-12-15T21:42:36.242Z,7.28
2022-12-15T21:45:27.953Z,4.32
2022-12-15T21:48:15.186Z,5.20
2022-12-15T21:50:49.507Z,4.80
2022-12-15T21:53:20.454Z,5.55
2022-12-15T21:56:02.583Z,6.65
2022-12-15T21:58:31.698Z,3.83
2022-12-15T22:01:01.670Z,2.95
2022-12-15T22:03:30.393Z,5.30
2022-12-15T22:06:02.273Z,3.75
2022-12-15T22:08:34.382Z,4.10
2022-12-15T22:11:19.122Z,5.82
2022-12-15T22:13:49.075Z,2.63
2022-12-15T22:16:18.166Z,2.60
2022-12-15T22:18:57.104Z,4.00
2022-12-15T22:21:28.377Z,2.40
2022-12-15T22:23:57.144Z,5.97
2022-12-15T22:26:33.411Z,2.88
2022-12-15T22:29:14.692Z,2.05
2022-12-15T22:31:43.583Z,4.32
2022-12-15T22:34:22.751Z,2.40
2022-12-15T22:36:55.144Z,2.67
2022-12-15T22:39:24.273Z,4.13
2022-12-15T22:41:54.299Z,1.70
2022-12-15T22:44:43.093Z,2.00
2022-12-15T22:47:20.570Z,1.65
2022-12-15T22:49:51.633Z,1.95
2022-12-15T22:52:21.932Z,2.97
2022-12-15T22:54:50.843Z,3.45
2022-12-15T22:57:26.064Z,2.40
2022-12-15T23:00:20.973Z,3.97
2022-12-15T23:05:27.399Z,1.52
2022-12-15T23:07:56.422Z,3.63
2022-12-15T23:10:43.550Z,3.05
2022-12-15T23:13:12.305Z,3.30
2022-12-15T23:16:04.927Z,3.97
2022-12-15T23:18:33.827Z,2.30
2022-12-15T23:21:05.295Z,2.33
2022-12-15T23:23:36.677Z,2.83
2022-12-15T23:26:06.304Z,3.10
2022-12-15T23:28:35.608Z,2.90
2022-12-15T23:31:14.225Z,5.20
2022-12-15T23:33:43.562Z,2.63
2022-12-15T23:36:12.937Z,4.57
2022-12-15T23:38:45.471Z,11.57
2022-12-15T23:41:20.012Z,8.60
2022-12-15T23:43:48.993Z,7.30
2022-12-15T23:46:19.379Z,5.97
2022-12-15T23:48:48.302Z,3.80
2022-12-15T23:51:19.302Z,3.15
2022-12-15T23:53:49.116Z,3.55
2022-12-15T23:56:24.069Z,4.75
2022-12-15T23:58:58.298Z,4.10
